Airfield :
LOGIN :

Register | Disclaimer

   EN    FR    IT 

 










Legend :    VFR   Marginal VFR   IFR   Intensive IFR   Very Intensive IFR
Visi :
Ceiling :
>= 8 km
>= 3000ft
5 to 8 km
1000 to 3000 ft
1500m to 5 km
500 to 1000 ft
800 to 1500m
200 to 500 ft
< 800m
< 200 ft
Symbols :   Thunderstorms  Fog  Heavy snow  Heavy precipitations  Wind > 20 kt
SIGMETs :     Misc.  Thunderstorms  Icing  Turbulence  Mountain Waves  Volcanic Ashes






- Airport Elevation : 863 ft
- IATA code : ZAZ


LEZG - Zaragoza Aragon

CURRENT METAR :
  • 280530Z 00000KT CAVOK 08/06 Q1019

EXPIRED METARs :
  • 280500Z 29003KT 260V320 CAVOK 09/07 Q1019
  • 280430Z 24003KT CAVOK 09/06 Q1019
  • 280400Z 22004KT CAVOK 09/07 Q1018
  • 280330Z 24003KT 230V290 CAVOK 09/07 Q1018
  • 280300Z VRB02KT CAVOK 10/07 Q1018

TAF TAF LEZG
Valid from the 28 at 06:00 until the 29 at 06:00 UTC


280500Z 2806/2906 26009KT 9999 FEW025 TX22/2815Z TN10/2806Z
TEMPO 2811/2819 34005KT



MET'MAP, your aeronautical weather chart ! - Copyright ORBIFLY December 2007 - Disclaimer

ORBIFLY MET'MAP TEAM :

Programming & Development : Alexandra Zaïnal
Concept & original design : Baudouin d'Aumeries
Assistance for programming : Marc-Olivier Méhu
Technical & hardware support : Manuel Goepfert

Contact : metmap@orbifly.com




SOURCES & CREDITS :

   NOAA